createdAt,value
2016-10-15T00:00:41.071Z,0
2016-10-15T00:01:41.060Z,0
2016-10-15T00:02:41.038Z,0
2016-10-15T00:03:41.028Z,0
2016-10-15T00:04:41.026Z,0
2016-10-15T00:05:41.317Z,0
2016-10-15T00:06:41.316Z,0
2016-10-15T00:07:40.978Z,0
2016-10-15T00:08:40.960Z,0
2016-10-15T00:09:41.263Z,0
2016-10-15T00:10:41.252Z,0
2016-10-15T00:11:40.915Z,0
2016-10-15T00:12:40.910Z,0
2016-10-15T00:13:41.517Z,0
2016-10-15T00:14:40.884Z,0
2016-10-15T00:15:40.867Z,0
2016-10-15T00:16:40.853Z,0
2016-10-15T00:17:40.886Z,0
2016-10-15T00:18:41.133Z,0
2016-10-15T00:19:40.840Z,0
2016-10-15T00:20:40.797Z,0
2016-10-15T00:21:40.805Z,0
2016-10-15T00:22:41.096Z,0
2016-10-15T00:23:41.379Z,0
2016-10-15T00:24:40.762Z,0
2016-10-15T00:25:41.046Z,0
2016-10-15T00:26:41.035Z,0
2016-10-15T00:27:41.646Z,0
2016-10-15T00:28:41.009Z,0
2016-10-15T00:29:40.681Z,0
2016-10-15T00:30:40.965Z,0
2016-10-15T00:31:40.650Z,0
2016-10-15T00:32:40.636Z,0
2016-10-15T00:33:40.936Z,0
2016-10-15T00:34:40.613Z,0
2016-10-15T00:35:40.594Z,0
2016-10-15T00:36:40.583Z,0
2016-10-15T00:37:40.572Z,0
2016-10-15T00:38:40.557Z,0
2016-10-15T00:39:41.475Z,0
2016-10-15T00:40:40.536Z,0
2016-10-15T00:41:40.505Z,0
2016-10-15T00:42:40.504Z,0
2016-10-15T00:43:40.479Z,0
2016-10-15T00:44:41.100Z,0
2016-10-15T00:45:40.774Z,0
2016-10-15T00:46:41.072Z,0
2016-10-15T00:47:40.749Z,0
2016-10-15T00:48:41.042Z,0
2016-10-15T00:49:40.407Z,0
2016-10-15T00:50:40.704Z,0
2016-10-15T00:51:40.690Z,0
2016-10-15T00:52:40.734Z,0
2016-10-15T00:53:40.355Z,0
2016-10-15T00:54:40.642Z,0
2016-10-15T00:55:40.320Z,0
2016-10-15T00:56:40.309Z,0
2016-10-15T00:57:40.287Z,0
2016-10-15T00:58:40.278Z,0
2016-10-15T00:59:40.581Z,0
2016-10-15T01:00:40.249Z,0
2016-10-15T01:01:40.246Z,0
2016-10-15T01:02:40.221Z,0
2016-10-15T01:03:40.217Z,0
2016-10-15T01:04:40.191Z,0
2016-10-15T01:05:40.180Z,0
2016-10-15T01:06:40.164Z,0
2016-10-15T01:07:40.156Z,0
2016-10-15T01:08:40.142Z,0
2016-10-15T01:09:40.137Z,0
2016-10-15T01:10:40.461Z,0
2016-10-15T01:11:40.114Z,0
2016-10-15T01:12:40.401Z,0
2016-10-15T01:13:40.782Z,0
2016-10-15T01:14:40.054Z,0
2016-10-15T01:15:40.041Z,0
2016-10-15T01:16:40.682Z,0
2016-10-15T01:17:40.324Z,0
2016-10-15T01:18:40.000Z,0
2016-10-15T01:19:39.989Z,0
2016-10-15T01:20:39.976Z,0
2016-10-15T01:21:40.280Z,0
2016-10-15T01:22:39.952Z,0
2016-10-15T01:23:40.556Z,0
2016-10-15T01:24:39.936Z,0
2016-10-15T01:25:40.216Z,0
2016-10-15T01:26:39.888Z,0
2016-10-15T01:27:39.871Z,0
2016-10-15T01:28:39.872Z,0
2016-10-15T01:29:39.849Z,0
2016-10-15T01:30:40.170Z,0
2016-10-15T01:31:39.823Z,0
2016-10-15T01:32:39.811Z,0
2016-10-15T01:33:39.789Z,0
2016-10-15T01:34:40.093Z,0
2016-10-15T01:35:39.803Z,0
2016-10-15T01:36:39.750Z,0
2016-10-15T01:37:39.743Z,0
2016-10-15T01:38:39.734Z,0
2016-10-15T01:39:40.023Z,0
2016-10-15T01:40:39.702Z,0
2016-10-15T01:41:39.686Z,0
2016-10-15T01:42:39.690Z,0
2016-10-15T01:43:39.704Z,0
2016-10-15T01:44:39.644Z,0
2016-10-15T01:45:39.629Z,0
2016-10-15T01:46:39.925Z,0
2016-10-15T01:47:39.611Z,0
2016-10-15T01:48:39.583Z,0
2016-10-15T01:49:39.578Z,0
2016-10-15T01:50:39.570Z,0
2016-10-15T01:51:40.200Z,0
2016-10-15T01:52:39.537Z,0
2016-10-15T01:53:39.835Z,0
2016-10-15T01:54:39.816Z,0
2016-10-15T01:55:39.492Z,0
2016-10-15T01:56:39.484Z,0
2016-10-15T01:57:39.789Z,0
2016-10-15T01:58:39.452Z,0
2016-10-15T01:59:39.428Z,0
2016-10-15T02:00:39.444Z,0
2016-10-15T02:01:39.718Z,0
2016-10-15T02:02:39.715Z,0
2016-10-15T02:03:39.700Z,0
2016-10-15T02:04:39.368Z,0
2016-10-15T02:05:39.359Z,0
2016-10-15T02:06:39.725Z,0
2016-10-15T02:07:39.323Z,0
2016-10-15T02:08:39.313Z,0
2016-10-15T02:09:39.298Z,0
2016-10-15T02:10:39.597Z,0
2016-10-15T02:11:39.269Z,0
2016-10-15T02:12:39.250Z,0
2016-10-15T02:13:39.243Z,0
2016-10-15T02:14:39.541Z,0
2016-10-15T02:15:39.229Z,0
2016-10-15T02:16:39.211Z,0
2016-10-15T02:17:39.210Z,0
2016-10-15T02:18:39.173Z,0
2016-10-15T02:19:39.167Z,0
2016-10-15T02:20:39.147Z,0
2016-10-15T02:21:39.125Z,0
2016-10-15T02:22:39.117Z,0
2016-10-15T02:23:39.417Z,0
2016-10-15T02:24:39.116Z,0
2016-10-15T02:25:39.078Z,0
2016-10-15T02:26:39.379Z,0
2016-10-15T02:27:39.050Z,0
2016-10-15T02:28:39.038Z,0
2016-10-15T02:29:39.020Z,0
2016-10-15T02:30:39.004Z,0
2016-10-15T02:31:39.033Z,0
2016-10-15T02:32:39.284Z,0
2016-10-15T02:33:38.966Z,0
2016-10-15T02:34:39.251Z,0
2016-10-15T02:35:38.941Z,0
2016-10-15T02:36:39.240Z,0
2016-10-15T02:37:38.906Z,0
2016-10-15T02:38:38.892Z,0
2016-10-15T02:39:38.875Z,0
2016-10-15T02:40:38.862Z,0
2016-10-15T02:41:39.157Z,0
2016-10-15T02:42:38.835Z,0
2016-10-15T02:43:38.820Z,0
2016-10-15T02:44:39.159Z,0
2016-10-15T02:45:38.784Z,0
2016-10-15T02:46:39.399Z,0
2016-10-15T02:47:39.081Z,0
2016-10-15T02:48:39.062Z,0
2016-10-15T02:49:38.733Z,0
2016-10-15T02:50:38.719Z,0
2016-10-15T02:51:38.705Z,0
2016-10-15T02:52:38.687Z,0
2016-10-15T02:53:38.673Z,0
2016-10-15T02:54:38.656Z,0
2016-10-15T02:55:38.648Z,0
2016-10-15T02:56:38.630Z,0
2016-10-15T02:57:38.616Z,0
2016-10-15T02:58:38.604Z,0
2016-10-15T02:59:38.587Z,0
2016-10-15T03:00:38.576Z,0
2016-10-15T03:01:38.564Z,0
2016-10-15T03:02:38.557Z,0
2016-10-15T03:03:38.842Z,0
2016-10-15T03:04:38.516Z,0
2016-10-15T03:05:39.122Z,0
2016-10-15T03:06:38.504Z,0
2016-10-15T03:07:38.527Z,0
2016-10-15T03:08:38.469Z,0
2016-10-15T03:09:38.446Z,0
2016-10-15T03:10:38.428Z,0
2016-10-15T03:11:39.037Z,0
2016-10-15T03:12:38.395Z,0
2016-10-15T03:13:39.013Z,0
2016-10-15T03:14:39.509Z,0
2016-10-15T03:15:38.377Z,0
2016-10-15T03:16:38.340Z,0
2016-10-15T03:17:38.645Z,0
2016-10-15T03:18:38.312Z,0
2016-10-15T03:19:38.937Z,0
2016-10-15T03:20:38.285Z,0
2016-10-15T03:21:38.284Z,0
2016-10-15T03:22:38.252Z,0
2016-10-15T03:23:38.237Z,0
2016-10-15T03:24:38.259Z,0
2016-10-15T03:25:38.212Z,0
2016-10-15T03:26:38.196Z,0
2016-10-15T03:27:38.493Z,0
2016-10-15T03:28:38.171Z,0
2016-10-15T03:29:38.459Z,0
2016-10-15T03:30:39.086Z,0
2016-10-15T03:31:38.118Z,0
2016-10-15T03:32:38.728Z,0
2016-10-15T03:33:38.435Z,0
2016-10-15T03:34:38.390Z,0
2016-10-15T03:35:38.059Z,0
2016-10-15T03:36:38.369Z,0
2016-10-15T03:37:38.670Z,0
2016-10-15T03:38:38.016Z,0
2016-10-15T03:39:38.318Z,0
2016-10-15T03:40:37.977Z,0
2016-10-15T03:41:37.966Z,0
2016-10-15T03:42:38.265Z,0
2016-10-15T03:43:37.942Z,0
2016-10-15T03:44:37.935Z,0
2016-10-15T03:45:38.247Z,0
2016-10-15T03:46:38.218Z,0
2016-10-15T03:47:38.527Z,0
2016-10-15T03:48:37.869Z,0
2016-10-15T03:49:37.852Z,0
2016-10-15T03:50:37.853Z,0
2016-10-15T03:51:37.815Z,0
2016-10-15T03:52:37.811Z,0
2016-10-15T03:53:37.787Z,0
2016-10-15T03:54:37.780Z,0
2016-10-15T03:55:37.761Z,0
2016-10-15T03:56:37.744Z,0
2016-10-15T03:57:37.736Z,0
2016-10-15T03:58:38.026Z,0
2016-10-15T03:59:37.712Z,0
2016-10-15T04:00:38.006Z,0
2016-10-15T04:01:37.680Z,0
2016-10-15T04:02:37.657Z,0
2016-10-15T04:03:37.955Z,0
2016-10-15T04:04:37.632Z,0
2016-10-15T04:05:38.556Z,0
2016-10-15T04:06:37.602Z,0
2016-10-15T04:07:37.584Z,0
2016-10-15T04:08:38.194Z,0
2016-10-15T04:09:37.569Z,0
2016-10-15T04:10:37.857Z,0
2016-10-15T04:11:37.525Z,0
2016-10-15T04:12:37.508Z,0
2016-10-15T04:13:37.801Z,0
2016-10-15T04:14:37.478Z,0
2016-10-15T04:15:37.464Z,0
2016-10-15T04:16:37.447Z,0
2016-10-15T04:17:37.428Z,0
2016-10-15T04:18:37.416Z,0
2016-10-15T04:19:37.399Z,0
2016-10-15T04:20:38.010Z,0
2016-10-15T04:21:37.371Z,0
2016-10-15T04:22:37.355Z,0
2016-10-15T04:23:37.337Z,0
2016-10-15T04:24:37.320Z,0
2016-10-15T04:25:37.627Z,0
2016-10-15T04:26:37.291Z,0
2016-10-15T04:27:37.605Z,0
2016-10-15T04:28:37.261Z,0
2016-10-15T04:29:37.567Z,0
2016-10-15T04:30:37.234Z,0
2016-10-15T04:31:37.228Z,0
2016-10-15T04:32:37.205Z,0
2016-10-15T04:33:37.195Z,0
2016-10-15T04:34:37.187Z,0
2016-10-15T04:35:37.160Z,0
2016-10-15T04:36:37.160Z,0
2016-10-15T04:37:37.130Z,0
2016-10-15T04:38:37.126Z,0
2016-10-15T04:39:37.109Z,0
2016-10-15T04:40:37.143Z,0
2016-10-15T04:41:37.392Z,0
2016-10-15T04:42:37.376Z,0
2016-10-15T04:43:37.053Z,0
2016-10-15T04:44:37.033Z,0
2016-10-15T04:45:37.022Z,0
2016-10-15T04:46:37.019Z,0
2016-10-15T04:47:36.997Z,0
2016-10-15T04:48:36.971Z,0
2016-10-15T04:49:36.980Z,0
2016-10-15T04:50:37.253Z,0
2016-10-15T04:51:37.249Z,0
2016-10-15T04:52:37.233Z,0
2016-10-15T04:53:36.908Z,0
2016-10-15T04:54:36.893Z,0
2016-10-15T04:55:37.502Z,0
2016-10-15T04:56:37.219Z,0
2016-10-15T04:57:37.154Z,0
2016-10-15T04:58:36.823Z,0
2016-10-15T04:59:36.807Z,0
2016-10-15T05:00:37.131Z,0
2016-10-15T05:01:36.783Z,0
2016-10-15T05:02:36.775Z,0
2016-10-15T05:03:37.066Z,0
2016-10-15T05:04:36.740Z,0
2016-10-15T05:05:37.032Z,0
2016-10-15T05:06:36.707Z,0
2016-10-15T05:07:36.707Z,0
2016-10-15T05:08:36.679Z,0
2016-10-15T05:09:36.669Z,0
2016-10-15T05:10:36.648Z,0
2016-10-15T05:11:36.640Z,0
2016-10-15T05:12:37.240Z,0
2016-10-15T05:13:36.608Z,0
2016-10-15T05:14:37.132Z,0
2016-10-15T05:15:36.906Z,0
2016-10-15T05:16:36.882Z,0
2016-10-15T05:17:36.866Z,0
2016-10-15T05:18:36.537Z,0
2016-10-15T05:19:36.832Z,0
2016-10-15T05:20:36.812Z,0
2016-10-15T05:21:36.483Z,0
2016-10-15T05:22:36.785Z,0
2016-10-15T05:23:36.468Z,0
2016-10-15T05:24:36.448Z,0
2016-10-15T05:25:36.746Z,0
2016-10-15T05:26:36.424Z,0
2016-10-15T05:27:36.395Z,0
2016-10-15T05:28:36.374Z,0
2016-10-15T05:29:36.678Z,0
2016-10-15T05:30:36.665Z,0
2016-10-15T05:31:36.661Z,0
2016-10-15T05:32:37.540Z,0
2016-10-15T05:33:36.668Z,0
2016-10-15T05:34:36.553Z,0
2016-10-15T05:35:36.918Z,0
2016-10-15T05:36:36.579Z,0
2016-10-15T05:37:36.877Z,0
2016-10-15T05:38:36.236Z,0
2016-10-15T05:39:36.545Z,0
2016-10-15T05:40:36.833Z,0
2016-10-15T05:41:36.197Z,0
2016-10-15T05:42:36.492Z,0
2016-10-15T05:43:36.154Z,0
2016-10-15T05:44:36.146Z,0
2016-10-15T05:45:36.234Z,0
2016-10-15T05:46:36.118Z,0
2016-10-15T05:47:36.437Z,0
2016-10-15T05:48:36.091Z,0
2016-10-15T05:49:36.475Z,0
2016-10-15T05:50:36.056Z,0
2016-10-15T05:51:36.678Z,0
2016-10-15T05:52:36.677Z,0
2016-10-15T05:53:36.021Z,0
2016-10-15T05:54:36.312Z,0
2016-10-15T05:55:35.985Z,0
2016-10-15T05:56:35.975Z,0
2016-10-15T05:57:36.316Z,0
2016-10-15T05:58:35.945Z,0
2016-10-15T05:59:35.930Z,0
2016-10-15T06:00:35.926Z,0
2016-10-15T06:01:36.208Z,0
2016-10-15T06:02:36.204Z,0
2016-10-15T06:03:35.890Z,0
2016-10-15T06:04:35.876Z,0
2016-10-15T06:05:35.845Z,0
2016-10-15T06:06:35.847Z,0
2016-10-15T06:07:35.813Z,0
2016-10-15T06:08:35.797Z,0
2016-10-15T06:09:36.103Z,0
2016-10-15T06:10:35.770Z,0
2016-10-15T06:11:36.070Z,0
2016-10-15T06:12:36.056Z,0
2016-10-15T06:13:35.748Z,0
2016-10-15T06:14:36.026Z,0
2016-10-15T06:15:36.019Z,0
2016-10-15T06:16:35.692Z,0
2016-10-15T06:17:35.996Z,0
2016-10-15T06:18:35.669Z,0
2016-10-15T06:19:35.667Z,0
2016-10-15T06:20:35.970Z,0
2016-10-15T06:21:35.618Z,0
2016-10-15T06:22:35.925Z,0
2016-10-15T06:23:35.584Z,0
2016-10-15T06:24:35.892Z,5
2016-10-15T06:25:35.564Z,5
2016-10-15T06:26:35.555Z,5
2016-10-15T06:27:35.546Z,5
2016-10-15T06:28:35.524Z,5
2016-10-15T06:29:35.511Z,5
2016-10-15T06:30:36.118Z,5
2016-10-15T06:31:35.806Z,5
2016-10-15T06:32:35.461Z,10
2016-10-15T06:33:35.764Z,10
2016-10-15T06:34:35.759Z,10
2016-10-15T06:35:35.736Z,10
2016-10-15T06:36:35.405Z,10
2016-10-15T06:37:35.715Z,10
2016-10-15T06:38:35.693Z,10
2016-10-15T06:39:35.371Z,10
2016-10-15T06:40:35.350Z,10
2016-10-15T06:41:36.294Z,10
2016-10-15T06:42:35.331Z,10
2016-10-15T06:43:35.645Z,10
2016-10-15T06:44:35.312Z,10
2016-10-15T06:45:35.300Z,10
2016-10-15T06:46:35.267Z,10
2016-10-15T06:47:35.267Z,10
2016-10-15T06:48:35.241Z,10
2016-10-15T06:49:35.221Z,10
2016-10-15T06:50:35.219Z,10
2016-10-15T06:51:35.202Z,15
2016-10-15T06:52:35.509Z,15
2016-10-15T06:53:35.487Z,15
2016-10-15T06:54:35.197Z,15
2016-10-15T06:55:35.668Z,15
2016-10-15T06:56:35.141Z,20
2016-10-15T06:57:35.134Z,20
2016-10-15T06:58:35.107Z,20
2016-10-15T06:59:35.348Z,25
2016-10-15T07:00:35.081Z,25
2016-10-15T07:01:35.072Z,25
2016-10-15T07:02:35.048Z,25
2016-10-15T07:03:35.039Z,25
2016-10-15T07:04:35.022Z,25
2016-10-15T07:05:35.345Z,25
2016-10-15T07:06:34.994Z,25
2016-10-15T07:07:35.302Z,20
2016-10-15T07:08:35.933Z,20
2016-10-15T07:09:35.269Z,20
2016-10-15T07:10:35.265Z,20
2016-10-15T07:11:35.238Z,25
2016-10-15T07:12:34.921Z,30
2016-10-15T07:13:34.952Z,30
2016-10-15T07:14:35.100Z,40
2016-10-15T07:15:35.819Z,35
2016-10-15T07:16:34.917Z,35
2016-10-15T07:17:35.157Z,35
2016-10-15T07:18:34.842Z,35
2016-10-15T07:19:34.829Z,35
2016-10-15T07:20:35.118Z,35
2016-10-15T07:21:34.810Z,35
2016-10-15T07:22:34.778Z,35
2016-10-15T07:23:34.785Z,30
2016-10-15T07:24:35.068Z,30
2016-10-15T07:25:35.052Z,25
2016-10-15T07:26:34.724Z,25
2016-10-15T07:27:35.059Z,25
2016-10-15T07:28:35.022Z,25
2016-10-15T07:29:34.690Z,25
2016-10-15T07:30:34.692Z,30
2016-10-15T07:31:34.663Z,30
2016-10-15T07:32:34.651Z,25
2016-10-15T07:33:35.274Z,35
2016-10-15T07:34:34.948Z,30
2016-10-15T07:35:34.603Z,25
2016-10-15T07:36:34.595Z,25
2016-10-15T07:37:34.592Z,25
2016-10-15T07:38:34.902Z,30
2016-10-15T07:39:34.586Z,30
2016-10-15T07:40:35.183Z,35
2016-10-15T07:42:04.990Z,35
2016-10-15T07:42:34.527Z,35
2016-10-15T07:43:35.129Z,25
2016-10-15T07:44:34.490Z,25
2016-10-15T07:45:34.793Z,25
2016-10-15T07:46:34.454Z,25
2016-10-15T07:47:34.770Z,25
2016-10-15T07:48:34.495Z,25
2016-10-15T07:49:34.752Z,35
2016-10-15T07:50:34.731Z,35
2016-10-15T07:51:34.409Z,45
2016-10-15T07:52:34.695Z,50
2016-10-15T07:53:34.689Z,50
2016-10-15T07:54:34.989Z,50
2016-10-15T07:55:34.348Z,50
2016-10-15T07:56:34.347Z,50
2016-10-15T07:57:34.316Z,50
2016-10-15T07:58:34.362Z,55
2016-10-15T07:59:34.906Z,65
2016-10-15T08:00:34.591Z,65
2016-10-15T08:01:34.263Z,65
2016-10-15T08:02:34.255Z,65
2016-10-15T08:03:34.554Z,65
2016-10-15T08:04:34.230Z,60
2016-10-15T08:05:34.525Z,70
2016-10-15T08:06:34.532Z,80
2016-10-15T08:07:34.202Z,75
2016-10-15T08:08:34.165Z,70
2016-10-15T08:09:34.503Z,70
2016-10-15T08:10:34.151Z,70
2016-10-15T08:11:34.132Z,70
2016-10-15T08:12:34.117Z,60
2016-10-15T08:13:34.423Z,55
2016-10-15T08:14:34.089Z,55
2016-10-15T08:15:34.085Z,50
2016-10-15T08:16:34.726Z,45
2016-10-15T08:17:34.071Z,45
2016-10-15T08:18:34.377Z,45
2016-10-15T08:19:34.347Z,40
2016-10-15T08:20:34.979Z,45
2016-10-15T08:21:34.003Z,40
2016-10-15T08:22:33.994Z,45
2016-10-15T08:23:33.976Z,45
2016-10-15T08:24:33.971Z,40
2016-10-15T08:25:33.959Z,40
2016-10-15T08:26:33.956Z,45
2016-10-15T08:27:34.247Z,45
2016-10-15T08:28:34.233Z,40
2016-10-15T08:29:33.915Z,35
2016-10-15T08:30:33.891Z,40
2016-10-15T08:31:33.889Z,35
2016-10-15T08:32:33.867Z,45
2016-10-15T08:33:33.859Z,45
2016-10-15T08:34:34.155Z,45
2016-10-15T08:35:33.834Z,45
2016-10-15T08:36:33.815Z,50
2016-10-15T08:37:33.820Z,50
2016-10-15T08:38:34.113Z,50
2016-10-15T08:39:34.101Z,50
2016-10-15T08:40:34.001Z,55
2016-10-15T08:41:34.080Z,55
2016-10-15T08:42:34.056Z,60
2016-10-15T08:43:33.734Z,55
2016-10-15T08:44:33.745Z,65
2016-10-15T08:45:34.016Z,80
2016-10-15T08:46:34.325Z,65
2016-10-15T08:47:33.684Z,65
2016-10-15T08:48:33.988Z,70
2016-10-15T08:49:34.025Z,70
2016-10-15T08:50:33.657Z,75
2016-10-15T08:51:33.635Z,85
2016-10-15T08:52:33.935Z,90
2016-10-15T08:53:33.609Z,75
2016-10-15T08:54:33.898Z,65
2016-10-15T08:55:33.882Z,75
2016-10-15T08:56:33.593Z,90
2016-10-15T08:57:33.858Z,75
2016-10-15T08:58:34.244Z,80
2016-10-15T08:59:34.159Z,75
2016-10-15T09:00:33.721Z,60
2016-10-15T09:01:33.505Z,75
2016-10-15T09:02:33.559Z,70
2016-10-15T09:03:33.520Z,65
2016-10-15T09:04:33.790Z,60
2016-10-15T09:05:34.094Z,80
2016-10-15T09:06:33.465Z,85
2016-10-15T09:07:33.777Z,95
2016-10-15T09:08:33.432Z,80
2016-10-15T09:09:34.055Z,95
2016-10-15T09:10:33.714Z,80
2016-10-15T09:11:33.692Z,80
2016-10-15T09:12:33.692Z,85
2016-10-15T09:13:33.351Z,55
2016-10-15T09:14:33.559Z,60
2016-10-15T09:15:33.330Z,55
2016-10-15T09:16:33.313Z,50
2016-10-15T09:17:33.689Z,40
2016-10-15T09:18:33.615Z,40
2016-10-15T09:19:33.278Z,40
2016-10-15T09:20:33.271Z,40
2016-10-15T09:21:33.258Z,35
2016-10-15T09:22:33.565Z,45
2016-10-15T09:23:33.913Z,55
2016-10-15T09:24:33.733Z,70
2016-10-15T09:25:33.559Z,70
2016-10-15T09:26:34.399Z,60
2016-10-15T09:27:33.774Z,75
2016-10-15T09:28:33.576Z,85
2016-10-15T09:29:33.907Z,75
2016-10-15T09:30:33.985Z,70
2016-10-15T09:31:33.787Z,95
2016-10-15T09:32:33.982Z,70
2016-10-15T09:33:33.771Z,115
2016-10-15T09:34:34.139Z,105
2016-10-15T09:35:33.432Z,80
2016-10-15T09:36:33.441Z,60
2016-10-15T09:37:33.725Z,45
2016-10-15T09:38:33.906Z,60
2016-10-15T09:39:33.743Z,70
2016-10-15T09:40:33.684Z,120
2016-10-15T09:41:33.626Z,85
2016-10-15T09:42:34.355Z,70
2016-10-15T09:43:33.825Z,75
2016-10-15T09:44:34.131Z,100
2016-10-15T09:45:33.915Z,95
2016-10-15T09:46:33.677Z,105
2016-10-15T09:47:33.660Z,80
2016-10-15T09:48:34.006Z,70
2016-10-15T09:49:33.245Z,95
2016-10-15T09:50:33.282Z,110
2016-10-15T09:51:32.897Z,115
2016-10-15T09:52:33.192Z,65
2016-10-15T09:53:33.196Z,80
2016-10-15T09:54:33.162Z,60
2016-10-15T09:55:33.215Z,55
2016-10-15T09:56:32.830Z,50
2016-10-15T09:57:32.829Z,70
2016-10-15T09:58:32.861Z,60
2016-10-15T09:59:32.798Z,75
2016-10-15T10:00:32.833Z,85
2016-10-15T10:01:32.759Z,130
2016-10-15T10:02:33.077Z,110
2016-10-15T10:03:32.743Z,105
2016-10-15T10:04:32.736Z,105
2016-10-15T10:05:33.106Z,120
2016-10-15T10:06:33.025Z,145
2016-10-15T10:07:32.688Z,110
2016-10-15T10:08:32.690Z,100
2016-10-15T10:09:32.692Z,90
2016-10-15T10:10:32.663Z,85
2016-10-15T10:11:32.965Z,70
2016-10-15T10:12:32.630Z,90
2016-10-15T10:13:32.937Z,95
2016-10-15T10:14:32.620Z,90
2016-10-15T10:15:32.647Z,75
2016-10-15T10:16:32.588Z,105
2016-10-15T10:17:32.570Z,105
2016-10-15T10:18:32.877Z,85
2016-10-15T10:19:32.557Z,85
2016-10-15T10:20:32.850Z,80
2016-10-15T10:21:32.527Z,70
2016-10-15T10:22:32.520Z,75
2016-10-15T10:23:32.816Z,65
2016-10-15T10:24:32.501Z,55
2016-10-15T10:25:32.503Z,50
2016-10-15T10:26:32.484Z,40
2016-10-15T10:27:32.790Z,40
2016-10-15T10:28:32.784Z,60
2016-10-15T10:29:32.441Z,75
2016-10-15T10:30:32.430Z,75
2016-10-15T10:31:32.750Z,80
2016-10-15T10:32:33.259Z,80
2016-10-15T10:33:33.029Z,95
2016-10-15T10:34:32.422Z,80
2016-10-15T10:35:33.001Z,80
2016-10-15T10:36:32.694Z,75
2016-10-15T10:37:32.671Z,75
2016-10-15T10:38:32.855Z,70
2016-10-15T10:39:33.277Z,75
2016-10-15T10:40:32.995Z,55
2016-10-15T10:41:32.308Z,65
2016-10-15T10:42:32.605Z,55
2016-10-15T10:43:32.277Z,80
2016-10-15T10:44:32.898Z,70
2016-10-15T10:45:32.259Z,65
2016-10-15T10:46:32.274Z,90
2016-10-15T10:47:32.266Z,80
2016-10-15T10:48:32.231Z,85
2016-10-15T10:49:32.536Z,70
2016-10-15T10:50:32.608Z,60
2016-10-15T10:51:32.384Z,60
2016-10-15T10:52:32.181Z,55
2016-10-15T10:53:32.783Z,60
2016-10-15T10:54:32.467Z,65
2016-10-15T10:55:32.147Z,65
2016-10-15T10:56:32.463Z,60
2016-10-15T10:57:32.124Z,65
2016-10-15T10:58:32.103Z,55
2016-10-15T10:59:32.432Z,45
2016-10-15T11:00:32.724Z,45
2016-10-15T11:01:32.381Z,40
2016-10-15T11:02:32.368Z,40
2016-10-15T11:03:32.070Z,50
2016-10-15T11:04:32.370Z,60
2016-10-15T11:05:32.326Z,75
2016-10-15T11:06:32.323Z,70
2016-10-15T11:07:31.983Z,60
2016-10-15T11:08:32.603Z,60
2016-10-15T11:09:32.288Z,60
2016-10-15T11:10:31.935Z,55
2016-10-15T11:11:32.249Z,55
2016-10-15T11:12:32.229Z,50
2016-10-15T11:13:32.220Z,60
2016-10-15T11:14:32.103Z,65
2016-10-15T11:15:31.892Z,70
2016-10-15T11:16:32.187Z,80
2016-10-15T11:17:32.166Z,80
2016-10-15T11:18:32.174Z,75
2016-10-15T11:19:31.821Z,70
2016-10-15T11:20:31.832Z,70
2016-10-15T11:21:32.132Z,70
2016-10-15T11:22:31.780Z,75
2016-10-15T11:23:32.110Z,65
2016-10-15T11:24:32.084Z,80
2016-10-15T11:25:31.747Z,80
2016-10-15T11:26:32.049Z,80
2016-10-15T11:27:31.757Z,85
2016-10-15T11:28:32.032Z,80
2016-10-15T11:29:32.017Z,75
2016-10-15T11:30:32.004Z,70
2016-10-15T11:31:31.675Z,70
2016-10-15T11:32:31.956Z,70
2016-10-15T11:33:31.974Z,70
2016-10-15T11:34:32.586Z,65
2016-10-15T11:35:31.927Z,65
2016-10-15T11:36:31.616Z,65
2016-10-15T11:37:31.912Z,65
2016-10-15T11:38:31.590Z,60
2016-10-15T11:39:31.874Z,55
2016-10-15T11:40:31.554Z,55
2016-10-15T11:41:31.854Z,50
2016-10-15T11:42:32.157Z,50
2016-10-15T11:43:32.464Z,40
2016-10-15T11:44:31.812Z,35
2016-10-15T11:45:31.812Z,40
2016-10-15T11:46:31.803Z,40
2016-10-15T11:47:31.480Z,45
2016-10-15T11:48:31.466Z,50
2016-10-15T11:49:31.763Z,50
2016-10-15T11:50:31.453Z,45
2016-10-15T11:51:32.041Z,55
2016-10-15T11:52:31.409Z,60
2016-10-15T11:53:32.341Z,60
2016-10-15T11:54:32.238Z,50
2016-10-15T11:55:31.994Z,55
2016-10-15T11:56:32.013Z,50
2016-10-15T11:57:31.668Z,55
2016-10-15T11:58:31.948Z,55
2016-10-15T11:59:31.845Z,55
2016-10-15T12:00:31.617Z,60
2016-10-15T12:01:31.362Z,55
2016-10-15T12:02:31.585Z,55
2016-10-15T12:03:31.578Z,55
2016-10-15T12:04:31.237Z,50
2016-10-15T12:05:31.566Z,55
2016-10-15T12:06:31.262Z,60
2016-10-15T12:07:31.522Z,60
2016-10-15T12:08:31.188Z,70
2016-10-15T12:09:31.854Z,70
2016-10-15T12:10:31.488Z,90
2016-10-15T12:11:31.145Z,75
2016-10-15T12:12:31.452Z,80
2016-10-15T12:13:31.124Z,75
2016-10-15T12:14:31.435Z,80
2016-10-15T12:15:31.401Z,70
2016-10-15T12:16:31.799Z,100
2016-10-15T12:17:31.693Z,105
2016-10-15T12:18:31.375Z,115
2016-10-15T12:19:31.690Z,95
2016-10-15T12:20:31.980Z,90
2016-10-15T12:21:31.343Z,90
2016-10-15T12:22:31.321Z,100
2016-10-15T12:23:31.636Z,95
2016-10-15T12:24:31.295Z,95
2016-10-15T12:25:30.989Z,100
2016-10-15T12:26:30.979Z,110
2016-10-15T12:27:31.348Z,105
2016-10-15T12:28:31.592Z,115
2016-10-15T12:29:31.636Z,140
2016-10-15T12:30:31.269Z,130
2016-10-15T12:31:30.977Z,115
2016-10-15T12:32:31.566Z,130
2016-10-15T12:33:31.013Z,115
2016-10-15T12:34:30.857Z,105
2016-10-15T12:35:30.850Z,110
2016-10-15T12:36:31.481Z,90
2016-10-15T12:37:30.817Z,105
2016-10-15T12:38:31.109Z,110
2016-10-15T12:39:31.429Z,115
2016-10-15T12:40:31.081Z,115
2016-10-15T12:41:31.281Z,110
2016-10-15T12:42:31.069Z,105
2016-10-15T12:43:30.732Z,95
2016-10-15T12:44:31.034Z,100
2016-10-15T12:45:31.028Z,115
2016-10-15T12:46:31.335Z,115
2016-10-15T12:47:31.017Z,115
2016-10-15T12:48:30.982Z,115
2016-10-15T12:49:31.288Z,120
2016-10-15T12:50:30.682Z,120
2016-10-15T12:51:30.658Z,115
2016-10-15T12:52:31.252Z,110
2016-10-15T12:53:31.268Z,110
2016-10-15T12:54:31.266Z,120
2016-10-15T12:55:31.230Z,105
2016-10-15T12:56:30.910Z,110
2016-10-15T12:57:30.559Z,105
2016-10-15T12:58:30.894Z,100
2016-10-15T12:59:31.183Z,105
2016-10-15T13:00:30.583Z,95
2016-10-15T13:01:31.167Z,105
2016-10-15T13:02:30.823Z,90
2016-10-15T13:03:31.438Z,95
2016-10-15T13:04:31.143Z,105
2016-10-15T13:05:30.790Z,105
2016-10-15T13:06:31.403Z,105
2016-10-15T13:07:31.077Z,115
2016-10-15T13:08:30.449Z,125
2016-10-15T13:09:30.740Z,140
2016-10-15T13:10:30.725Z,140
2016-10-15T13:11:30.712Z,150
2016-10-15T13:12:30.762Z,160
2016-10-15T13:13:30.996Z,155
2016-10-15T13:14:31.272Z,150
2016-10-15T13:15:31.285Z,130
2016-10-15T13:16:30.649Z,115
2016-10-15T13:17:30.531Z,105
2016-10-15T13:18:30.645Z,100
2016-10-15T13:19:30.933Z,100
2016-10-15T13:20:30.282Z,100
2016-10-15T13:21:30.274Z,105
2016-10-15T13:22:30.577Z,110
2016-10-15T13:23:30.573Z,115
2016-10-15T13:24:30.570Z,110
2016-10-15T13:25:30.791Z,100
2016-10-15T13:26:30.227Z,105
2016-10-15T13:27:30.226Z,120
2016-10-15T13:28:30.197Z,120
2016-10-15T13:29:30.189Z,115
2016-10-15T13:30:30.501Z,105
2016-10-15T13:31:30.166Z,115
2016-10-15T13:32:30.173Z,110
2016-10-15T13:33:30.450Z,110
2016-10-15T13:34:30.447Z,115
2016-10-15T13:35:30.440Z,125
2016-10-15T13:36:30.107Z,125
2016-10-15T13:37:30.437Z,135
2016-10-15T13:38:30.393Z,135
2016-10-15T13:39:30.085Z,150
2016-10-15T13:40:30.367Z,155
2016-10-15T13:41:30.362Z,175
2016-10-15T13:42:30.025Z,160
2016-10-15T13:43:30.335Z,155
2016-10-15T13:44:30.009Z,150
2016-10-15T13:45:30.324Z,155
2016-10-15T13:46:30.292Z,145
2016-10-15T13:47:30.303Z,140
2016-10-15T13:48:30.296Z,150
2016-10-15T13:49:30.579Z,145
2016-10-15T13:50:30.302Z,140
2016-10-15T13:51:30.558Z,145
2016-10-15T13:52:30.561Z,140
2016-10-15T13:53:30.917Z,145
2016-10-15T13:54:30.223Z,150
2016-10-15T13:55:30.520Z,145
2016-10-15T13:56:29.883Z,150
2016-10-15T13:57:30.516Z,155
2016-10-15T13:58:30.482Z,150
2016-10-15T13:59:31.120Z,145
2016-10-15T14:00:29.826Z,130
2016-10-15T14:01:29.812Z,105
2016-10-15T14:02:30.760Z,95
2016-10-15T14:03:29.798Z,85
2016-10-15T14:04:29.781Z,90
2016-10-15T14:05:30.119Z,100
2016-10-15T14:06:30.388Z,100
2016-10-15T14:07:29.756Z,95
2016-10-15T14:08:29.815Z,95
2016-10-15T14:09:30.062Z,95
2016-10-15T14:10:30.040Z,95
2016-10-15T14:11:30.026Z,95
2016-10-15T14:12:30.018Z,100
2016-10-15T14:13:30.008Z,100
2016-10-15T14:14:30.309Z,95
2016-10-15T14:15:29.987Z,90
2016-10-15T14:16:29.999Z,90
2016-10-15T14:17:29.641Z,95
2016-10-15T14:18:29.936Z,95
2016-10-15T14:19:29.619Z,95
2016-10-15T14:20:29.617Z,95
2016-10-15T14:21:29.922Z,95
2016-10-15T14:22:29.589Z,95
2016-10-15T14:23:29.620Z,95
2016-10-15T14:24:29.571Z,95
2016-10-15T14:25:29.885Z,100